Time;durP1;ratioP1;P1;durP2;ratioP2;P2;SDS_P1;SDS_P2;PMS_P1;PMS_P2;Temp;Humidity;BMP_temperature;BMP_pressure;BME280_temperature;BME280_humidity;BME280_pressure;Samples;Min_cycle;Max_cycle;Signal;HPM_P1;HPM_P2
2024/03/25 00:00:31;;;;;;;8.43;4.25;;;;;;;5.98;100.00;99318.13;5062215;28;20032;-74
2024/03/25 00:02:56;;;;;;;8.43;4.07;;;;;;;5.77;100.00;99301.91;5047540;28;20076;-75
2024/03/25 00:05:22;;;;;;;7.17;4.43;;;;;;;5.93;100.00;99317.78;5048785;28;20289;-75
2024/03/25 00:07:48;;;;;;;7.15;4.15;;;;;;;5.92;100.00;99318.75;5032778;28;20110;-75
2024/03/25 00:10:14;;;;;;;8.85;4.78;;;;;;;5.84;100.00;99316.13;5061847;28;20032;-75
2024/03/25 00:12:40;;;;;;;6.45;3.75;;;;;;;5.96;100.00;99327.25;5049528;28;20399;-75
2024/03/25 00:15:05;;;;;;;9.52;4.43;;;;;;;6.01;100.00;99325.75;5055937;28;20127;-75
2024/03/25 00:17:31;;;;;;;9.00;4.65;;;;;;;5.83;100.00;99320.63;5064892;28;20064;-75
2024/03/25 00:19:57;;;;;;;7.70;4.20;;;;;;;5.76;100.00;99324.06;5047144;28;20047;-75
2024/03/25 00:22:25;;;;;;;6.35;4.57;;;;;;;5.91;100.00;99333.84;5058401;28;20660;-75
2024/03/25 00:24:51;;;;;;;7.57;4.50;;;;;;;5.86;100.00;99332.69;5031742;28;20029;-75
2024/03/25 00:27:17;;;;;;;10.13;4.85;;;;;;;5.88;100.00;99350.06;5046069;28;20058;-75
2024/03/25 00:29:42;;;;;;;8.90;4.65;;;;;;;5.92;100.00;99354.06;5044400;28;20033;-75
2024/03/25 00:32:08;;;;;;;12.80;4.75;;;;;;;5.91;100.00;99357.69;5044421;28;20679;-75
2024/03/25 00:34:34;;;;;;;14.63;5.22;;;;;;;5.72;100.00;99344.78;5041786;28;20036;-75
2024/03/25 00:37:00;;;;;;;10.85;4.88;;;;;;;5.90;100.00;99357.88;5056481;28;20059;-75
2024/03/25 00:39:26;;;;;;;9.23;4.50;;;;;;;5.88;100.00;99368.63;5053117;28;20399;-75
2024/03/25 00:41:52;;;;;;;7.35;4.05;;;;;;;5.81;100.00;99351.72;5044388;28;20037;-75
2024/03/25 00:44:17;;;;;;;6.80;4.03;;;;;;;5.87;100.00;99363.47;5044682;28;20029;-75
2024/03/25 00:46:43;;;;;;;10.73;4.82;;;;;;;5.87;100.00;99358.19;5044496;28;20119;-75
2024/03/25 00:49:09;;;;;;;7.78;4.50;;;;;;;5.95;100.00;99365.31;5062908;28;20032;-75
2024/03/25 00:51:35;;;;;;;;;;;;;;;5.97;100.00;99365.97;5065345;28;20079;-75
2024/03/25 00:54:01;;;;;;;11.38;4.55;;;;;;;5.87;100.00;99374.06;5060806;28;19939;-74
2024/03/25 00:56:26;;;;;;;8.23;4.93;;;;;;;5.80;100.00;99395.09;5041891;28;20025;-74
2024/03/25 00:58:51;;;;;;;7.77;4.87;;;;;;;5.79;100.00;99401.41;5060969;28;20040;-75
2024/03/25 01:01:17;;;;;;;10.10;5.13;;;;;;;5.82;100.00;99419.59;5058877;28;20085;-75
2024/03/25 01:03:42;;;;;;;8.13;5.50;;;;;;;5.70;100.00;99418.25;5073157;28;20290;-75
2024/03/25 01:06:08;;;;;;;9.80;5.77;;;;;;;5.70;100.00;99424.38;5069489;28;20108;-73
2024/03/25 01:08:34;;;;;;;11.03;5.57;;;;;;;5.62;100.00;99442.06;5065002;28;20283;-73
2024/03/25 01:11:00;;;;;;;10.13;5.00;;;;;;;5.68;100.00;99446.72;5064698;28;20291;-75
2024/03/25 01:13:25;;;;;;;10.88;5.60;;;;;;;5.50;100.00;99439.75;5031064;28;20039;-74
2024/03/25 01:15:51;;;;;;;10.95;5.63;;;;;;;5.62;100.00;99460.59;5049029;28;20039;-75
2024/03/25 01:18:17;;;;;;;11.95;5.57;;;;;;;5.49;100.00;99451.31;5060134;28;20035;-74
2024/03/25 01:20:42;;;;;;;7.50;5.13;;;;;;;5.53;100.00;99465.06;5060132;28;20119;-74
2024/03/25 01:23:08;;;;;;;9.80;4.97;;;;;;;5.61;100.00;99480.97;5068482;28;20040;-73
2024/03/25 01:25:33;;;;;;;9.15;5.25;;;;;;;5.46;100.00;99472.81;5067559;28;20067;-74
2024/03/25 01:27:59;;;;;;;10.15;5.68;;;;;;;5.42;100.00;99473.31;5050138;28;20056;-74
2024/03/25 01:30:24;;;;;;;10.57;5.75;;;;;;;5.27;100.00;99473.09;5061736;28;20381;-73
2024/03/25 01:32:50;;;;;;;8.18;5.07;;;;;;;5.46;100.00;99491.34;5049469;28;20043;-73
2024/03/25 01:35:15;;;;;;;10.27;4.97;;;;;;;5.53;100.00;99499.47;5057506;28;20055;-73
2024/03/25 01:37:41;;;;;;;12.82;5.43;;;;;;;5.43;100.00;99493.47;5056986;28;20094;-74
2024/03/25 01:40:07;;;;;;;;;;;;;;;5.41;100.00;99492.81;5048886;28;20029;-75
2024/03/25 01:42:32;;;;;;;10.40;5.15;;;;;;;5.44;100.00;99501.25;5061774;28;19917;-75
2024/03/25 01:44:58;;;;;;;10.27;5.17;;;;;;;5.43;100.00;99499.63;5056732;28;20059;-73
2024/03/25 01:47:24;;;;;;;9.30;5.28;;;;;;;5.28;100.00;99493.25;5042618;28;20295;-74
2024/03/25 01:49:53;;;;;;;10.73;5.63;;;;;;;5.36;100.00;99503.91;5051462;28;20043;-74
2024/03/25 01:52:20;;;;;;;10.93;5.38;;;;;;;5.38;100.00;99501.88;5067496;28;20040;-74
2024/03/25 01:54:46;;;;;;;8.55;5.90;;;;;;;5.36;100.00;99514.47;5075606;28;20117;-74
2024/03/25 01:57:12;;;;;;;10.55;5.25;;;;;;;5.41;100.00;99514.81;5072976;28;20486;-74
2024/03/25 01:59:39;;;;;;;9.25;5.05;;;;;;;5.37;100.00;99516.13;5042810;28;20467;-73
2024/03/25 02:02:05;;;;;;;8.63;4.97;;;;;;;5.42;100.00;99519.13;5069143;28;20042;-74
2024/03/25 02:04:31;;;;;;;;;;;;;;;5.41;100.00;99517.47;5072761;28;20029;-73
2024/03/25 02:06:58;;;;;;;12.88;5.57;;;;;;;5.44;100.00;99517.16;5075114;28;19918;-72
2024/03/25 02:09:24;;;;;;;11.30;5.55;;;;;;;5.48;100.00;99529.09;5046846;28;20136;-73
2024/03/25 02:11:51;;;;;;;9.70;5.25;;;;;;;5.41;100.00;99520.13;5046588;28;20032;-73
2024/03/25 02:14:16;;;;;;;10.73;5.22;;;;;;;5.35;100.00;99518.09;5064408;28;20036;-73
2024/03/25 02:16:42;;;;;;;9.57;5.43;;;;;;;5.35;100.00;99523.38;5053474;28;20047;-73
2024/03/25 02:19:09;;;;;;;9.23;5.40;;;;;;;5.44;100.00;99521.63;5056586;28;20261;-73
2024/03/25 02:21:35;;;;;;;11.55;5.57;;;;;;;5.37;100.00;99526.72;5053812;28;20531;-73
2024/03/25 02:24:05;;;;;;;11.07;5.20;;;;;;;5.41;100.00;99525.41;5061219;28;20119;-72
2024/03/25 02:26:30;;;;;;;11.05;5.65;;;;;;;5.36;100.00;99518.91;5063177;28;20297;-72
2024/03/25 02:28:56;;;;;;;10.32;5.65;;;;;;;5.30;100.00;99512.47;5060769;28;20036;-72
2024/03/25 02:31:21;;;;;;;8.45;4.68;;;;;;;5.32;100.00;99513.13;5051144;28;20483;-72
2024/03/25 02:33:47;;;;;;;12.40;5.40;;;;;;;5.31;100.00;99519.41;5048016;28;20045;-72
2024/03/25 02:36:12;;;;;;;10.73;6.07;;;;;;;5.19;100.00;99518.03;5051307;28;20044;-72
2024/03/25 02:38:38;;;;;;;12.67;6.23;;;;;;;5.18;100.00;99524.31;5047386;28;20710;-73
2024/03/25 02:41:03;;;;;;;11.70;5.80;;;;;;;5.32;100.00;99534.31;5052729;28;20295;-72
2024/03/25 02:43:29;;;;;;;10.50;4.95;;;;;;;5.13;100.00;99526.56;5055771;28;20033;-72
2024/03/25 02:45:55;;;;;;;8.25;4.72;;;;;;;5.25;100.00;99533.28;5040483;28;20127;-72
2024/03/25 02:48:21;;;;;;;9.13;5.70;;;;;;;5.32;100.00;99539.59;5064209;28;20104;-72
2024/03/25 02:50:46;;;;;;;17.20;5.68;;;;;;;5.29;100.00;99527.50;5056710;28;20082;-72
2024/03/25 02:53:11;;;;;;;14.10;5.47;;;;;;;5.33;100.00;99527.19;5059438;28;20036;-72
2024/03/25 02:55:37;;;;;;;10.47;5.80;;;;;;;5.31;100.00;99527.34;5058733;28;20291;-72
2024/03/25 02:58:02;;;;;;;9.80;5.13;;;;;;;5.27;100.00;99521.53;5064445;28;20290;-72
2024/03/25 03:00:28;;;;;;;16.00;6.13;;;;;;;5.23;100.00;99524.66;5028963;28;20132;-72
2024/03/25 03:02:53;;;;;;;13.97;6.60;;;;;;;5.35;100.00;99519.91;5070003;28;20044;-72
2024/03/25 03:05:18;;;;;;;12.63;5.87;;;;;;;5.33;100.00;99520.06;5067309;28;20025;-73
2024/03/25 03:07:44;;;;;;;10.50;5.78;;;;;;;5.34;100.00;99529.69;5080545;28;20067;-73
2024/03/25 03:10:09;;;;;;;11.18;5.20;;;;;;;5.29;100.00;99532.81;5074597;28;20078;-72
2024/03/25 03:12:35;;;;;;;16.02;5.85;;;;;;;5.35;100.00;99535.81;5055216;28;20029;-72
2024/03/25 03:15:00;;;;;;;13.47;6.77;;;;;;;5.29;100.00;99540.75;5058809;28;20044;-72
2024/03/25 03:17:25;;;;;;;15.93;5.97;;;;;;;5.38;100.00;99543.41;5049351;28;20266;-73
2024/03/25 03:19:51;;;;;;;9.63;5.50;;;;;;;5.44;100.00;99546.25;5056077;28;20131;-73
2024/03/25 03:22:16;;;;;;;12.17;6.37;;;;;;;5.34;100.00;99550.00;5054352;28;20028;-73
2024/03/25 03:24:42;;;;;;;8.98;4.85;;;;;;;5.39;100.00;99547.75;5048772;28;20040;-73
2024/03/25 03:27:07;;;;;;;11.73;5.23;;;;;;;5.28;100.00;99549.66;5045314;28;20434;-73
2024/03/25 03:29:32;;;;;;;13.55;5.35;;;;;;;5.29;100.00;99546.03;5049913;28;20032;-73
2024/03/25 03:31:58;;;;;;;11.30;5.30;;;;;;;5.33;100.00;99549.19;5056256;28;20060;-73
2024/03/25 03:34:23;;;;;;;14.02;6.00;;;;;;;5.36;100.00;99537.44;5054838;28;20025;-73
2024/03/25 03:36:49;;;;;;;12.48;4.78;;;;;;;5.34;100.00;99539.41;5046741;28;20472;-73
2024/03/25 03:39:15;;;;;;;10.75;5.80;;;;;;;5.36;100.00;99543.59;5046298;28;20040;-73
2024/03/25 03:41:40;;;;;;;;;;;;;;;5.29;100.00;99540.75;5054878;28;20035;-73
2024/03/25 03:44:06;;;;;;;12.77;5.18;;;;;;;5.33;100.00;99546.53;5054533;28;20314;-73
2024/03/25 03:46:31;;;;;;;11.57;5.78;;;;;;;5.41;100.00;99549.25;5053014;28;20510;-73
2024/03/25 03:48:57;;;;;;;16.17;5.53;;;;;;;5.33;100.00;99551.84;5057133;28;20029;-73
2024/03/25 03:51:22;;;;;;;14.98;6.60;;;;;;;5.38;100.00;99560.13;5045706;28;21079;-73
2024/03/25 03:53:48;;;;;;;16.15;6.05;;;;;;;5.40;100.00;99558.16;5060267;28;20043;-74
2024/03/25 03:56:13;;;;;;;11.38;4.30;;;;;;;5.45;100.00;99565.63;5049847;28;20028;-73
2024/03/25 03:58:39;;;;;;;11.82;5.53;;;;;;;5.50;100.00;99574.75;5048152;28;20025;-73
2024/03/25 04:01:04;;;;;;;17.03;5.93;;;;;;;5.44;100.00;99578.03;5060813;28;20064;-73
2024/03/25 04:03:30;;;;;;;16.15;6.10;;;;;;;5.46;100.00;99589.28;5065649;28;20060;-74
2024/03/25 04:05:55;;;;;;;15.70;5.13;;;;;;;5.33;100.00;99582.78;5066443;28;20024;-74
2024/03/25 04:08:21;;;;;;;12.90;6.63;;;;;;;5.20;100.00;99577.91;5059278;28;20052;-74
2024/03/25 04:10:47;;;;;;;19.05;5.55;;;;;;;5.28;100.00;99585.88;5059051;28;20032;-74
2024/03/25 04:13:12;;;;;;;13.43;5.32;;;;;;;5.38;100.00;99591.06;5058903;28;20489;-74
2024/03/25 04:15:42;;;;;;;14.70;7.68;;;;;;;5.31;100.00;99600.63;5058179;28;20044;-74
2024/03/25 04:18:08;;;;;;;11.20;5.22;;;;;;;5.39;100.00;99603.31;5047939;28;20537;-74
2024/03/25 04:20:41;;;;;;;11.40;5.28;;;;;;;5.31;100.00;99598.78;5056757;28;20021;-74
2024/03/25 04:23:07;;;;;;;17.60;5.82;;;;;;;5.29;100.00;99603.41;5056066;28;20040;-74
2024/03/25 04:25:34;;;;;;;8.57;4.70;;;;;;;5.19;100.00;99605.34;5060516;28;20052;-73
2024/03/25 04:27:59;;;;;;;15.27;5.93;;;;;;;5.18;100.00;99609.00;5054304;28;20037;-75
2024/03/25 04:30:25;;;;;;;13.48;4.93;;;;;;;5.35;100.00;99628.44;5058402;28;20545;-74
2024/03/25 04:32:50;;;;;;;16.55;5.78;;;;;;;5.37;100.00;99631.75;5045917;28;20468;-74
2024/03/25 04:35:16;;;;;;;15.23;5.63;;;;;;;5.29;100.00;99636.03;5060736;28;20501;-74
2024/03/25 04:37:41;;;;;;;12.27;3.63;;;;;;;5.20;100.00;99623.72;5059636;28;20107;-74
2024/03/25 04:40:08;;;;;;;14.48;3.55;;;;;;;5.08;100.00;99614.38;5064244;28;21015;-74
2024/03/25 04:42:33;;;;;;;9.90;4.38;;;;;;;5.19;100.00;99610.63;5065532;28;20033;-75
2024/03/25 04:44:58;;;;;;;8.63;3.77;;;;;;;5.11;100.00;99592.06;5073563;28;20081;-74
2024/03/25 04:47:24;;;;;;;9.17;3.37;;;;;;;5.09;100.00;99581.63;5058009;28;20367;-74
2024/03/25 04:49:49;;;;;;;14.10;4.20;;;;;;;5.00;100.00;99572.81;5059785;28;20033;-74
2024/03/25 04:52:23;;;;;;;7.53;3.20;;;;;;;5.10;100.00;99582.47;5064372;28;20024;-74
2024/03/25 04:54:48;;;;;;;11.65;3.50;;;;;;;4.92;100.00;99572.75;5062751;28;20064;-74
2024/03/25 04:57:14;;;;;;;8.77;3.15;;;;;;;4.95;100.00;99561.88;5068110;28;20068;-74
2024/03/25 04:59:39;;;;;;;7.77;3.93;;;;;;;4.93;100.00;99550.59;5070669;28;20032;-74
2024/03/25 05:02:04;;;;;;;9.07;4.43;;;;;;;4.83;100.00;99542.78;5066725;28;20103;-74
2024/03/25 05:04:31;;;;;;;10.07;3.23;;;;;;;4.91;100.00;99568.44;5073998;28;20267;-74
2024/03/25 05:06:56;;;;;;;;;;;;;;;4.86;100.00;99560.97;5064168;28;20036;-74
2024/03/25 05:09:21;;;;;;;7.88;3.10;;;;;;;4.72;100.00;99528.97;5067018;28;19916;-74
2024/03/25 05:11:47;;;;;;;5.97;3.37;;;;;;;4.89;100.00;99548.44;5067529;28;20332;-74
2024/03/25 05:14:12;;;;;;;6.63;2.53;;;;;;;4.79;100.00;99512.34;5071773;28;20740;-74
2024/03/25 05:16:37;;;;;;;11.70;3.00;;;;;;;4.88;100.00;99520.34;5063529;28;20078;-74
2024/03/25 05:19:04;;;;;;;6.37;2.50;;;;;;;4.80;100.00;99503.44;5067470;28;20041;-74
2024/03/25 05:21:30;;;;;;;4.68;2.42;;;;;;;4.86;100.00;99515.19;5067484;28;20255;-74
2024/03/25 05:23:56;;;;;;;10.93;3.45;;;;;;;4.79;100.00;99514.16;5067757;28;20089;-74
2024/03/25 05:26:21;;;;;;;5.10;2.53;;;;;;;4.84;100.00;99503.94;5068482;28;20033;-74
2024/03/25 05:28:46;;;;;;;6.40;2.72;;;;;;;4.79;100.00;99495.66;5067248;28;20078;-74
2024/03/25 05:31:14;;;;;;;4.10;2.05;;;;;;;4.61;100.00;99487.75;5065782;28;20934;-74
2024/03/25 05:33:39;;;;;;;6.47;2.35;;;;;;;4.67;100.00;99479.22;5030844;28;20029;-74
2024/03/25 05:36:05;;;;;;;6.30;2.65;;;;;;;4.75;100.00;99483.72;5064204;28;20503;-74
2024/03/25 05:38:30;;;;;;;6.63;2.50;;;;;;;4.73;100.00;99454.81;5056471;28;20137;-74
2024/03/25 05:40:56;;;;;;;5.22;2.00;;;;;;;4.77;100.00;99447.38;5056338;28;20031;-74
2024/03/25 05:43:22;;;;;;;3.22;1.80;;;;;;;4.62;100.00;99444.50;5059351;28;20491;-74
2024/03/25 05:45:51;;;;;;;6.33;2.93;;;;;;;4.61;100.00;99446.31;5062530;28;20105;-74
2024/03/25 05:48:16;;;;;;;7.95;3.40;;;;;;;4.65;100.00;99447.63;5047207;28;20283;-75
2024/03/25 05:50:43;;;;;;;8.48;3.75;;;;;;;4.50;100.00;99453.66;5053989;28;20220;-74
2024/03/25 05:53:08;;;;;;;4.65;2.28;;;;;;;4.40;100.00;99466.94;5047721;28;20086;-74
2024/03/25 05:55:33;;;;;;;5.53;2.30;;;;;;;4.46;100.00;99466.34;5068168;28;20024;-74
2024/03/25 05:57:59;;;;;;;3.88;2.33;;;;;;;4.58;100.00;99480.97;5066832;28;20274;-74
2024/03/25 06:00:26;;;;;;;5.55;2.58;;;;;;;4.54;100.00;99460.28;5053583;28;20039;-74
2024/03/25 06:02:53;;;;;;;4.78;2.30;;;;;;;4.57;100.00;99468.75;5066536;28;20098;-74
2024/03/25 06:05:19;;;;;;;4.18;1.90;;;;;;;4.61;100.00;99471.88;5048796;28;20043;-75
2024/03/25 06:07:44;;;;;;;6.32;2.75;;;;;;;4.58;100.00;99470.38;5047744;28;20572;-74
2024/03/25 06:10:10;;;;;;;6.80;2.60;;;;;;;4.57;100.00;99462.63;5054639;28;20025;-74
2024/03/25 06:12:35;;;;;;;6.35;2.42;;;;;;;6.08;100.00;99625.31;5067185;28;20472;-74
2024/03/25 06:15:00;;;;;;;4.37;2.03;;;;;;;7.21;100.00;99545.13;5069738;28;20399;-74
2024/03/25 06:17:26;;;;;;;6.67;2.00;;;;;;;7.93;100.00;99359.78;5065697;28;20082;-74
2024/03/25 06:19:52;;;;;;;3.87;1.53;;;;;;;8.13;100.00;99149.31;5065997;28;20275;-75
2024/03/25 06:22:17;;;;;;;4.72;1.77;;;;;;;8.30;100.00;99007.16;5067094;28;20028;-75
2024/03/25 06:24:44;;;;;;;3.83;2.03;;;;;;;8.95;100.00;98993.78;5066988;28;20037;-75
2024/03/25 06:27:09;;;;;;;3.60;2.17;;;;;;;9.77;100.00;98944.19;5067228;28;20785;-75
2024/03/25 06:29:35;;;;;;;5.47;1.42;;;;;;;10.37;100.00;98778.91;5065753;28;20095;-75
2024/03/25 06:34:45;;;;;;;3.25;1.65;;;;;;;9.33;100.00;98203.31;5060938;28;20054;-75
2024/03/25 06:37:10;;;;;;;6.40;1.53;;;;;;;8.52;100.00;98275.78;5066827;28;20476;-75
2024/03/25 06:39:36;;;;;;;3.77;1.67;;;;;;;7.33;100.00;98250.97;5065590;28;20032;-75
2024/03/25 06:42:01;;;;;;;5.80;1.52;;;;;;;7.15;100.00;98398.28;5057218;28;20032;-75
2024/03/25 06:44:27;;;;;;;3.40;1.60;;;;;;;7.30;100.00;98540.66;5090260;23;20087;-78
2024/03/25 06:46:52;;;;;;;5.95;1.63;;;;;;;7.16;100.00;98632.63;5062626;28;20035;-76
2024/03/25 06:49:18;;;;;;;3.47;1.73;;;;;;;7.29;100.00;98730.97;5085491;28;20066;-76
2024/03/25 06:51:43;;;;;;;4.47;1.60;;;;;;;7.69;100.00;98834.06;5091366;28;20046;-78
2024/03/25 06:54:08;;;;;;;7.47;2.13;;;;;;;9.00;100.00;98983.38;5073440;28;20031;-77
2024/03/25 06:56:34;;;;;;;5.30;2.17;;;;;;;9.85;100.00;98776.06;5064207;28;20040;-77
2024/03/25 06:58:59;;;;;;;5.40;1.60;;;;;;;10.23;100.00;98628.72;5083600;28;20625;-78
2024/03/25 07:01:24;;;;;;;4.60;1.83;;;;;;;9.84;100.00;98340.03;5073358;28;20088;-78
2024/03/25 07:03:51;;;;;;;9.07;2.53;;;;;;;9.15;100.00;98254.63;5083184;28;20054;-78
2024/03/25 07:06:17;;;;;;;3.58;1.58;;;;;;;9.73;100.00;98480.91;5089660;28;20036;-77
2024/03/25 07:08:43;;;;;;;5.97;1.83;;;;;;;10.25;100.00;98448.00;5062765;28;20032;-76
2024/03/25 07:11:08;;;;;;;5.65;1.38;;;;;;;10.64;100.00;98454.09;5072668;28;20040;-78
2024/03/25 07:13:33;;;;;;;5.67;1.50;;;;;;;10.51;100.00;98226.41;5085399;28;20032;-78
2024/03/25 07:16:02;;;;;;;6.38;2.35;;;;;;;10.88;100.00;98369.66;5090104;28;20085;-79
2024/03/25 07:18:28;;;;;;;3.58;1.50;;;;;;;10.77;100.00;98368.56;5088906;28;20032;-76
2024/03/25 07:20:54;;;;;;;3.87;1.80;;;;;;;10.56;100.00;98362.63;5089594;28;20032;-78
2024/03/25 07:23:19;;;;;;;3.42;1.73;;;;;;;9.64;100.00;98218.41;5071735;28;20040;-77
2024/03/25 07:25:45;;;;;;;3.83;2.72;;;;;;;9.08;100.00;98339.03;5088494;28;20091;-80
2024/03/25 07:28:11;;;;;;;6.13;2.30;;;;;;;8.99;100.00;98606.44;5087572;28;20071;-78
2024/03/25 07:30:36;;;;;;;6.00;1.50;;;;;;;8.84;100.00;98644.69;5077119;28;20077;-80
2024/03/25 07:33:02;;;;;;;4.70;2.07;;;;;;;8.11;100.00;98524.06;5059460;28;20038;-78
2024/03/25 07:35:27;;;;;;;5.28;1.70;;;;;;;7.88;100.00;98751.03;5071650;28;20016;-78
2024/03/25 07:37:53;;;;;;;5.97;1.58;;;;;;;7.80;100.00;98959.22;5069406;28;20098;-77
2024/03/25 07:40:19;;;;;;;4.85;1.80;;;;;;;7.67;100.00;99059.19;5089603;28;20047;-77
2024/03/25 07:42:44;;;;;;;4.55;1.85;;;;;;;7.85;100.00;99168.56;5071510;28;20045;-78
2024/03/25 07:45:10;;;;;;;6.70;2.13;;;;;;;7.93;100.00;99168.47;5086971;28;20124;-78
2024/03/25 07:47:35;;;;;;;6.73;2.00;;;;;;;7.92;100.00;99111.03;5090063;28;20039;-78
2024/03/25 07:50:01;;;;;;;6.43;2.00;;;;;;;7.91;100.00;99157.19;5082231;28;20036;-78
2024/03/25 07:52:27;;;;;;;3.67;1.70;;;;;;;7.96;100.00;99120.28;5090585;28;20028;-79
2024/03/25 07:54:53;;;;;;;6.10;2.47;;;;;;;8.55;100.00;99259.50;5083987;28;20489;-76
2024/03/25 07:57:19;;;;;;;3.75;1.77;;;;;;;8.65;100.00;99121.69;5088825;28;20035;-77
2024/03/25 07:59:45;;;;;;;3.92;1.90;;;;;;;9.37;100.00;99218.38;5063581;28;20070;-78
2024/03/25 08:02:10;;;;;;;5.78;1.88;;;;;;;10.26;100.00;99167.91;5084598;28;20054;-79
2024/03/25 08:04:36;;;;;;;3.40;1.50;;;;;;;10.94;100.00;99058.44;5078207;28;20032;-78
2024/03/25 08:07:02;;;;;;;6.83;2.63;;;;;;;10.53;100.00;98635.19;5087054;28;20281;-77
2024/03/25 08:09:28;;;;;;;9.32;1.83;;;;;;;10.15;100.00;98504.47;5076263;28;20039;-77
2024/03/25 08:11:53;;;;;;;4.68;1.63;;;;;;;9.56;100.00;98557.00;5084002;28;20032;-77
2024/03/25 08:14:18;;;;;;;2.87;1.47;;;;;;;9.78;100.00;98711.28;5069467;28;20071;-79
2024/03/25 08:16:44;;;;;;;4.03;1.53;;;;;;;9.55;100.00;98558.03;5081783;28;20032;-78
2024/03/25 08:19:09;;;;;;;2.47;0.90;;;;;;;9.31;100.00;98572.84;5069469;28;20108;-80
2024/03/25 08:21:34;;;;;;;3.83;1.30;;;;;;;9.49;100.00;98573.00;5075457;28;20032;-79
2024/03/25 08:24:00;;;;;;;4.00;1.40;;;;;;;10.30;100.00;98586.88;5067372;28;20032;-78
2024/03/25 08:26:25;;;;;;;9.23;1.73;;;;;;;9.94;100.00;98444.31;5060095;28;20060;-79
2024/03/25 08:28:51;;;;;;;6.80;1.27;;;;;;;9.22;100.00;98372.53;5081242;28;20043;-79
2024/03/25 08:31:16;;;;;;;2.60;0.97;;;;;;;9.89;100.00;98644.84;5078054;28;20094;-77
2024/03/25 08:33:41;;;;;;;2.37;1.47;;;;;;;10.87;100.00;98760.47;5068427;28;20044;-79
2024/03/25 08:36:07;;;;;;;4.87;1.43;;;;;;;10.93;100.00;98506.81;5070570;28;20561;-78
2024/03/25 08:38:33;;;;;;;7.63;1.67;;;;;;;10.86;100.00;98353.88;5067253;28;20062;-76
2024/03/25 08:40:59;;;;;;;2.25;1.27;;;;;;;11.11;100.00;98580.78;5081002;28;20060;-79
2024/03/25 08:43:24;;;;;;;6.80;1.75;;;;;;;11.29;100.00;98440.31;5083238;28;20074;-79
2024/03/25 08:45:50;;;;;;;6.73;2.57;;;;;;;11.66;100.00;98352.03;5082738;28;20041;-78
2024/03/25 08:48:15;;;;;;;10.03;2.30;;;;;;;10.55;100.00;97814.06;5084835;28;20415;-78
2024/03/25 08:50:40;;;;;;;5.27;1.30;;;;;;;10.78;100.00;98066.75;5061615;28;20290;-77
2024/03/25 08:53:06;;;;;;;4.60;1.63;;;;;;;10.39;100.00;97956.13;5088009;28;20684;-77
2024/03/25 08:55:31;;;;;;;4.80;1.52;;;;;;;10.45;100.00;98051.25;5088844;28;20047;-79
2024/03/25 08:58:00;;;;;;;9.98;1.42;;;;;;;9.99;100.00;98007.34;5071843;28;20505;-79
2024/03/25 09:00:27;;;;;;;8.15;1.85;;;;;;;9.47;100.00;98159.56;5086145;28;20040;-79
2024/03/25 09:02:53;;;;;;;6.15;1.40;;;;;;;9.44;100.00;98343.78;5070682;28;20039;-76
2024/03/25 09:05:18;;;;;;;12.95;2.13;;;;;;;9.45;100.00;98526.50;5080593;28;20032;-77
2024/03/25 09:07:51;;;;;;;7.97;1.70;;;;;;;9.17;100.00;98549.91;5089179;28;20044;-79
2024/03/25 09:13:04;;;;;;;4.43;1.30;;;;;;;9.23;100.00;98823.34;5082444;28;20079;-78
2024/03/25 09:15:29;;;;;;;8.43;2.13;;;;;;;10.74;100.00;99162.53;5086815;28;20498;-79
2024/03/25 09:17:55;;;;;;;7.20;2.40;;;;;;;12.08;100.00;98873.59;5083056;28;20135;-77
2024/03/25 09:20:21;;;;;;;19.20;6.10;;;;;;;12.27;100.00;98307.28;5079482;28;20047;-77
2024/03/25 09:22:50;;;;;;;9.60;3.10;;;;;;;12.09;100.00;98178.00;5061404;28;20645;-79
2024/03/25 09:25:16;;;;;;;7.22;1.80;;;;;;;11.17;100.00;97895.44;5085313;28;20036;-79
2024/03/25 09:27:46;;;;;;;7.45;2.40;;;;;;;10.83;100.00;98210.19;5068389;28;20041;-77
2024/03/25 09:30:11;;;;;;;2.85;1.23;;;;;;;11.16;100.00;98467.97;5080646;28;20036;-77
2024/03/25 09:32:37;;;;;;;6.88;1.90;;;;;;;10.91;100.00;98239.25;5086911;28;20205;-78
2024/03/25 09:35:03;;;;;;;5.45;1.70;;;;;;;10.28;100.00;98396.91;5092951;28;20103;-76
2024/03/25 09:37:29;;;;;;;5.65;1.60;;;;;;;10.14;100.00;98565.00;5088814;28;20112;-77
2024/03/25 09:39:55;;;;;;;10.18;1.80;;;;;;;9.40;100.00;98485.56;5058563;28;20028;-79
2024/03/25 09:42:27;;;;;;;4.65;1.65;;;;;;;9.33;100.00;98724.44;5091563;28;20120;-78
2024/03/25 09:44:54;;;;;;;6.07;1.50;;;;;;;9.53;100.00;98821.16;5066857;28;20481;-78
2024/03/25 09:47:21;;;;;;;6.07;1.67;;;;;;;9.29;100.00;98860.66;5084286;28;20036;-79
2024/03/25 09:49:48;;;;;;;6.50;1.85;;;;;;;9.20;100.00;98728.72;5081821;28;20064;-78
2024/03/25 09:52:14;;;;;;;16.38;4.10;;;;;;;8.83;100.00;98525.19;5089309;28;20046;-77
2024/03/25 09:54:40;;;;;;;14.05;6.43;;;;;;;9.46;100.00;98700.47;5073718;28;20027;-77
2024/03/25 09:57:07;;;;;;;22.40;5.33;;;;;;;10.14;100.00;98581.00;5094058;28;20500;-78
2024/03/25 09:59:33;;;;;;;13.80;5.53;;;;;;;10.68;100.00;98676.78;5079874;28;20296;-77
2024/03/25 10:01:59;;;;;;;16.23;4.60;;;;;;;11.36;100.00;98200.63;5075460;28;20028;-77
2024/03/25 10:04:25;;;;;;;;;;;;;;;11.99;100.00;98028.03;5090354;28;20036;-79
2024/03/25 10:06:50;;;;;;;7.28;3.40;;;;;;;12.78;95.16;97813.13;5079336;28;20345;-79
2024/03/25 10:09:19;;;;;;;14.33;4.10;;;;;;;13.49;94.59;98014.97;5089389;28;20039;-78
2024/03/25 10:11:48;;;;;;;14.18;5.85;;;;;;;13.58;88.97;97663.41;5070732;28;20824;-80
2024/03/25 10:14:17;;;;;;;14.57;5.68;;;;;;;13.45;88.14;97603.03;5079985;28;20178;-78
2024/03/25 10:16:43;;;;;;;10.80;3.42;;;;;;;13.35;86.01;97511.88;5090368;28;20217;-78
2024/03/25 10:19:09;;;;;;;;;;;;;;;14.61;84.89;97772.16;5083257;28;20173;-79
2024/03/25 10:21:35;;;;;;;7.95;3.63;;;;;;;14.51;79.27;97257.53;5090825;28;19947;-78
2024/03/25 10:24:00;;;;;;;5.50;1.98;;;;;;;14.76;76.77;97230.63;5072297;28;20584;-77
2024/03/25 10:26:31;;;;;;;5.25;1.88;;;;;;;15.51;75.55;97382.91;5080641;28;20127;-78
2024/03/25 10:29:01;;;;;;;4.38;1.80;;;;;;;14.61;73.21;97012.44;5082177;28;20082;-77
2024/03/25 10:31:27;;;;;;;8.15;1.88;;;;;;;13.90;75.82;97275.31;5090206;28;20036;-77
2024/03/25 10:33:53;;;;;;;7.72;1.77;;;;;;;12.93;77.96;97295.75;5087834;28;20903;-75
2024/03/25 10:36:20;;;;;;;7.33;1.50;;;;;;;12.09;80.69;97461.31;5089714;28;20064;-77
2024/03/25 10:38:48;;;;;;;8.02;2.08;;;;;;;12.36;80.21;97570.16;5087855;28;20036;-77
2024/03/25 10:41:17;;;;;;;7.72;1.63;;;;;;;10.96;83.91;97603.25;5089919;28;20039;-76
2024/03/25 10:43:46;;;;;;;7.55;1.70;;;;;;;10.55;90.69;98056.84;5071934;28;20035;-76
2024/03/25 10:46:16;;;;;;;6.72;1.63;;;;;;;9.88;95.29;98261.25;5081993;28;20123;-77
2024/03/25 10:48:46;;;;;;;6.10;1.70;;;;;;;9.60;98.19;98353.13;5072417;28;20036;-77
2024/03/25 10:51:13;;;;;;;7.30;1.90;;;;;;;9.30;100.00;98515.28;5080148;28;20040;-77
2024/03/25 10:53:38;;;;;;;5.35;1.58;;;;;;;9.18;100.00;98620.78;5089147;28;20036;-76
2024/03/25 10:56:05;;;;;;;3.72;1.27;;;;;;;9.43;100.00;98781.56;5072985;28;20122;-75
2024/03/25 10:58:32;;;;;;;4.00;1.40;;;;;;;9.13;100.00;98581.47;5071369;28;20538;-76
2024/03/25 11:00:58;;;;;;;7.82;2.65;;;;;;;8.98;100.00;98565.69;5078225;28;20036;-77
2024/03/25 11:03:25;;;;;;;7.90;1.73;;;;;;;9.48;100.00;98709.06;5071434;28;20098;-77
2024/03/25 11:05:51;;;;;;;10.52;2.97;;;;;;;10.31;100.00;98642.69;5080232;28;20024;-77
2024/03/25 11:08:17;;;;;;;5.80;1.38;;;;;;;10.33;99.48;98389.91;5089702;28;20036;-76
2024/03/25 11:10:47;;;;;;;5.60;1.27;;;;;;;10.35;97.18;98264.34;5059891;28;20040;-75
2024/03/25 11:13:18;;;;;;;9.20;2.00;;;;;;;11.42;95.80;98392.03;5086342;28;20035;-77
2024/03/25 11:15:45;;;;;;;6.65;1.55;;;;;;;13.17;93.16;98588.09;5066855;28;20043;-76
2024/03/25 11:18:16;;;;;;;9.90;2.30;;;;;;;13.38;87.93;98195.44;5075407;28;20036;-77
2024/03/25 11:20:42;;;;;;;6.40;1.73;;;;;;;12.39;81.67;97443.94;5079505;28;20067;-76
2024/03/25 11:23:11;;;;;;;6.13;1.42;;;;;;;11.63;80.21;97201.59;5088374;28;20064;-75
2024/03/25 11:25:38;;;;;;;8.00;1.52;;;;;;;12.10;81.72;97569.88;5075127;28;20384;-77
2024/03/25 11:28:04;;;;;;;6.50;1.17;;;;;;;12.23;79.03;97354.75;5085067;28;20032;-76
2024/03/25 11:30:31;;;;;;;13.52;2.85;;;;;;;11.74;77.44;97141.84;5088609;28;20445;-76